Flight Track Log - Related Links

Times and Time Zones

All times are in EDT time to prevent confusion due to time zone crossing. See the N843DW flight status page for this flight to view local times or setup timezone preferences in your user account.

Time Position Orientation Groundspeed Altitude Reporting Facility
EDT Latitude Longitude Course Direction KTS MPH feet Rate Location/Type
Mon 08:02:34 PM 34.9811 -81.0603 178° South 160 184 1,000  Level Atlanta Center
Mon 08:03:17 PM 34.9456 -81.0589 178° South 194 223 3,500 4,138 Climbing Atlanta Center
Mon 08:03:32 PM 34.9289 -81.0569 175° South 220 253 5,000 4,320 Climbing Atlanta Center
Mon 08:04:32 PM 34.8683 -81.0567 180° South 244 281 8,900 4,150 Climbing Atlanta Center
Mon 08:05:32 PM 34.7994 -81.0564 180° South 254 292 13,300 4,200 Climbing Atlanta Center
Mon 08:06:32 PM 34.7264 -81.0592 182° South 254 292 17,300 3,403 Climbing Atlanta Center
Mon 08:07:46 PM 34.6181 -81.0558 179° South 286 329 20,900 2,463 Climbing Jacksonville Center
Mon 08:08:46 PM 34.5242 -81.0581 181° South 322 371 22,800 1,600 Climbing Jacksonville Center
Mon 08:09:46 PM 34.4197 -81.0603 181° South 366 421 24,100 1,350 Climbing Jacksonville Center
Mon 08:10:46 PM 34.3072 -81.0600 180° South 392 451 25,500 950 Climbing Jacksonville Center
Mon 08:11:46 PM 34.2050 -81.0697 184° South 386 444 26,000 250 Climbing Jacksonville Center
Mon 08:12:46 PM 34.1056 -81.1044 196° South 393 452 26,000 50 Level Jacksonville Center
Mon 08:13:46 PM 34.0017 -81.1467 199° South 393 452 26,100 450 Climbing Jacksonville Center
Mon 08:14:46 PM 33.9022 -81.1886 199° South 393 452 26,900 750 Climbing Jacksonville Center
Mon 08:15:46 PM 33.8047 -81.2331 201° Southwest 388 447 27,600 750 Climbing Jacksonville Center
Mon 08:16:46 PM 33.7156 -81.2847 206° Southwest 376 433 28,400 700 Climbing Jacksonville Center
Mon 08:17:46 PM 33.6244 -81.3386 206° Southwest 365 420 29,000 700 Climbing Jacksonville Center
Mon 08:18:46 PM 33.5331 -81.3875 204° Southwest 365 420 29,800 500 Climbing Jacksonville Center
Mon 08:19:46 PM 33.4400 -81.4414 206° Southwest 360 414 30,000 100 Climbing Jacksonville Center
Mon 08:20:46 PM 33.3361 -81.5003 205° Southwest 383 441 30,000  Level Jacksonville Center
Mon 08:21:46 PM 33.2264 -81.5642 206° Southwest 416 479 30,000 350 Level Jacksonville Center
Mon 08:22:46 PM 33.1142 -81.6303 206° Southwest 437 503 30,700 800 Climbing Jacksonville Center
Mon 08:23:46 PM 33.0083 -81.6861 204° Southwest 439 505 31,600 650 Climbing Jacksonville Center
Mon 08:24:46 PM 32.9003 -81.7469 205° Southwest 434 499 32,000 200 Climbing Jacksonville Center
Mon 08:25:46 PM 32.7903 -81.8103 206° Southwest 434 499 32,000  Level Jacksonville Center
Mon 08:26:46 PM 32.6719 -81.8808 207° Southwest 442 509 32,000  Level Jacksonville Center
Mon 08:27:46 PM 32.5636 -81.9289 201° Southwest 447 514 32,000  Level Jacksonville Center
Mon 08:28:46 PM 32.4303 -81.9572 190° South 447 514 32,000 -200 Level Jacksonville Center
Mon 08:29:46 PM 32.3136 -81.9806 190° South 437 503 31,600 -750 Descending Jacksonville Center
Mon 08:30:46 PM 32.1967 -82.0014 189° South 431 496 30,500 -1,000 Descending Jacksonville Center
Mon 08:31:46 PM 32.0758 -82.0247 189° South 431 496 29,600 -900 Descending Jacksonville Center
Mon 08:32:46 PM 31.9717 -82.0453 190° South 427 491 28,700 -1,200 Descending Jacksonville Center
Mon 08:33:46 PM 31.8422 -82.0683 189° South 432 497 27,200 -1,700 Descending Jacksonville Center
Mon 08:34:46 PM 31.7339 -82.0914 190° South 432 497 25,300 -2,000 Descending Jacksonville Center
Mon 08:35:46 PM 31.6108 -82.1192 191° South 421 484 23,200 -2,000 Descending Jacksonville Center
Mon 08:36:46 PM 31.5044 -82.1372 188° South 406 467 21,300 -1,900 Descending Jacksonville Center
Mon 08:37:46 PM 31.4003 -82.1600 191° South 386 444 19,400 -1,850 Descending Jacksonville Center
Mon 08:38:46 PM 31.3000 -82.1778 189° South 381 438 17,600 -1,780 Descending Jacksonville Center
Mon 08:39:17 PM 31.2481 -82.1878 189° South 365 420 16,700 -1,745 Descending Jacksonville Center
Mon 08:39:41 PM 31.2125 -82.1931 187° South 362 417 16,000 -1,765 Descending Jacksonville Center
Mon 08:40:42 PM 31.1103 -82.2156 191° South 342 394 14,200 -1,721 Descending Jacksonville Center
Mon 08:41:43 PM 31.0164 -82.2042 174° South 348 400 12,500 -1,091 Descending Jacksonville Center
Mon 08:42:43 PM 30.9242 -82.1611 158° South 353 406 12,000 -248 Descending Jacksonville Center
Mon 08:43:44 PM 30.8528 -82.0819 136° Southeast 362 417 12,000 -148 Level Jacksonville Center
Mon 08:44:45 PM 30.7792 -82.0053 138° Southeast 363 418 11,700 -689 Descending Jacksonville Center
Mon 08:45:46 PM 30.7075 -81.9236 136° Southeast 355 409 10,600 -1,041 Descending Jacksonville Center
Mon 08:46:46 PM 30.6486 -81.8592 137° Southeast 321 369 9,600 -1,200 Descending Jacksonville Center
Mon 08:47:46 PM 30.5917 -81.7944 136° Southeast 302 348 8,200 -1,450 Descending Jacksonville Center
Mon 08:48:46 PM 30.5325 -81.7278 136° Southeast 292 336 6,700 -1,970 Descending Jacksonville Center
Mon 08:50:00 PM 30.4672 -81.6539 136° Southeast 257 296 3,800 -2,044 Descending Jacksonville Center
Mon 08:51:01 PM 30.4167 -81.6064 141° Southeast 229 264 2,100 -1,398 Descending Jacksonville Center
Mon 08:51:43 PM 30.3914 -81.5778 136° Southeast 171 197 1,400 -936 Descending Jacksonville Center
Mon 08:52:50 PM 30.3594 -81.5397 134° Southeast 107 123 400 -896 Descending Jacksonville Center
Mon 08:54:00 PM 30.3363 -81.5144 North  Level Estimated
Mon 09:01:00 PM 30.3363 -81.5144 North  Level Estimated

Login

Don't have an account? Register now (free) for customized features, flight alerts, and more!